Terminal Aerodrome Forecast
Issued by NWS

Home | Current Version | Previous Version | Graphics & Text | Print | Product List | Glossary On
Versions: 1 2 3 4 5 6 7 8 9 10 11 12 13 14 15 16 17 18 19
000
FTUS42 KMHX 010526
TAFPGV
TAF
KPGV 010526Z 0106/0206 VRB02KT P6SM SCT250
     FM010800 00000KT 5SM BR SCT250
     FM011200 VRB02KT P6SM SCT250
     FM011800 24005KT P6SM FEW050
     FM020000 VRB02KT P6SM SCT250
      AMD LTD TO CLD VIS AND WIND=

USA.gov is the U.S. government's official web portal to all federal, state and local government web resources and services.